sensor_id;sensor_type;location;lat;lon;timestamp;pressure;altitude;pressure_sealevel;temperature;humidity
60417;BME280;46263;44.726;10.396;2023-02-16T00:00:18;101724.75;;;10.32;44.75
60417;BME280;46263;44.726;10.396;2023-02-16T00:02:45;101733.41;;;10.33;45.61
60417;BME280;46263;44.726;10.396;2023-02-16T00:05:31;101726.88;;;10.22;43.96
60417;BME280;46263;44.726;10.396;2023-02-16T00:07:58;101727.25;;;10.30;43.79
60417;BME280;46263;44.726;10.396;2023-02-16T00:10:26;101730.34;;;10.32;43.21
60417;BME280;46263;44.726;10.396;2023-02-16T00:12:54;101730.34;;;10.32;43.72
60417;BME280;46263;44.726;10.396;2023-02-16T00:15:39;101730.06;;;10.30;43.37
60417;BME280;46263;44.726;10.396;2023-02-16T00:18:15;101722.09;;;10.23;43.35
60417;BME280;46263;44.726;10.396;2023-02-16T00:20:41;101726.41;;;10.24;42.90
60417;BME280;46263;44.726;10.396;2023-02-16T00:23:07;101723.34;;;10.22;43.27
60417;BME280;46263;44.726;10.396;2023-02-16T00:25:32;101727.66;;;10.23;43.51
60417;BME280;46263;44.726;10.396;2023-02-16T00:28:03;101725.91;;;10.25;43.39
60417;BME280;46263;44.726;10.396;2023-02-16T00:30:29;101728.22;;;10.27;43.12
60417;BME280;46263;44.726;10.396;2023-02-16T00:32:55;101728.50;;;10.29;43.28
60417;BME280;46263;44.726;10.396;2023-02-16T00:35:22;101727.25;;;10.30;43.86
60417;BME280;46263;44.726;10.396;2023-02-16T00:37:48;101721.50;;;10.19;44.43
60417;BME280;46263;44.726;10.396;2023-02-16T00:40:15;101727.47;;;10.26;42.65
60417;BME280;46263;44.726;10.396;2023-02-16T00:42:42;101723.22;;;10.31;42.04
60417;BME280;46263;44.726;10.396;2023-02-16T00:45:14;101733.13;;;10.32;41.80
60417;BME280;46263;44.726;10.396;2023-02-16T00:47:43;101727.34;;;10.35;41.84
60417;BME280;46263;44.726;10.396;2023-02-16T00:52:41;101729.97;;;10.24;42.00
60417;BME280;46263;44.726;10.396;2023-02-16T00:55:10;101730.88;;;10.16;42.17
60417;BME280;46263;44.726;10.396;2023-02-16T00:57:51;101730.00;;;10.10;41.88
60417;BME280;46263;44.726;10.396;2023-02-16T01:00:29;101732.69;;;10.19;41.87
60417;BME280;46263;44.726;10.396;2023-02-16T01:03:00;101732.75;;;10.24;41.58
60417;BME280;46263;44.726;10.396;2023-02-16T01:05:27;101726.72;;;10.26;41.58
60417;BME280;46263;44.726;10.396;2023-02-16T01:07:53;101726.72;;;10.26;41.67
60417;BME280;46263;44.726;10.396;2023-02-16T01:10:38;101725.72;;;10.29;41.83
60417;BME280;46263;44.726;10.396;2023-02-16T01:13:24;101717.03;;;10.27;42.68
60417;BME280;46263;44.726;10.396;2023-02-16T01:15:50;101710.06;;;10.17;43.32
60417;BME280;46263;44.726;10.396;2023-02-16T01:18:18;101708.88;;;10.03;43.58
60417;BME280;46263;44.726;10.396;2023-02-16T01:20:44;101708.28;;;9.99;43.55
60417;BME280;46263;44.726;10.396;2023-02-16T01:23:10;101709.78;;;9.80;43.15
60417;BME280;46263;44.726;10.396;2023-02-16T01:25:36;101702.97;;;9.67;43.47
60417;BME280;46263;44.726;10.396;2023-02-16T01:28:02;101698.13;;;9.67;43.49
60417;BME280;46263;44.726;10.396;2023-02-16T01:30:28;101701.72;;;9.68;43.74
60417;BME280;46263;44.726;10.396;2023-02-16T01:32:54;101695.13;;;9.71;44.24
60417;BME280;46263;44.726;10.396;2023-02-16T01:35:30;101692.94;;;9.75;43.91
60417;BME280;46263;44.726;10.396;2023-02-16T01:37:57;101681.19;;;9.71;44.52
60417;BME280;46263;44.726;10.396;2023-02-16T01:45:32;101678.69;;;9.73;45.28
60417;BME280;46263;44.726;10.396;2023-02-16T01:48:05;101674.72;;;9.79;45.66
60417;BME280;46263;44.726;10.396;2023-02-16T01:50:46;101677.34;;;9.68;45.74
60417;BME280;46263;44.726;10.396;2023-02-16T01:53:16;101668.69;;;9.66;46.24
60417;BME280;46263;44.726;10.396;2023-02-16T01:55:47;101674.56;;;9.54;46.49
60417;BME280;46263;44.726;10.396;2023-02-16T01:58:24;101670.94;;;9.48;47.33
60417;BME280;46263;44.726;10.396;2023-02-16T02:03:25;101670.31;;;8.95;48.64
60417;BME280;46263;44.726;10.396;2023-02-16T02:06:30;101667.59;;;9.15;47.81
60417;BME280;46263;44.726;10.396;2023-02-16T02:09:10;101662.72;;;9.25;47.28
60417;BME280;46263;44.726;10.396;2023-02-16T02:11:49;101662.41;;;9.23;46.85
60417;BME280;46263;44.726;10.396;2023-02-16T02:14:21;101654.16;;;9.28;46.91
60417;BME280;46263;44.726;10.396;2023-02-16T02:16:56;101659.72;;;9.28;46.84
60417;BME280;46263;44.726;10.396;2023-02-16T02:19:23;101653.84;;;9.12;47.26
60417;BME280;46263;44.726;10.396;2023-02-16T02:22:20;101657.88;;;9.11;47.28
60417;BME280;46263;44.726;10.396;2023-02-16T02:28:25;101659.50;;;8.88;46.19
60417;BME280;46263;44.726;10.396;2023-02-16T02:39:34;101656.44;;;8.86;45.26
60417;BME280;46263;44.726;10.396;2023-02-16T02:42:18;101649.72;;;8.78;45.10
60417;BME280;46263;44.726;10.396;2023-02-16T02:44:50;101654.31;;;8.81;45.25
60417;BME280;46263;44.726;10.396;2023-02-16T02:47:17;101655.22;;;8.87;45.03
60417;BME280;46263;44.726;10.396;2023-02-16T02:49:53;101654.03;;;8.94;45.62
60417;BME280;46263;44.726;10.396;2023-02-16T02:52:20;101656.38;;;8.95;45.32
60417;BME280;46263;44.726;10.396;2023-02-16T02:54:47;101654.53;;;8.92;46.34
60417;BME280;46263;44.726;10.396;2023-02-16T02:57:39;101649.53;;;8.96;45.85
60417;BME280;46263;44.726;10.396;2023-02-16T03:00:29;101663.66;;;8.78;46.01
60417;BME280;46263;44.726;10.396;2023-02-16T03:03:46;101660.06;;;8.78;45.87
60417;BME280;46263;44.726;10.396;2023-02-16T03:06:15;101656.16;;;8.84;45.23
60417;BME280;46263;44.726;10.396;2023-02-16T03:08:44;101663.84;;;8.89;45.22
60417;BME280;46263;44.726;10.396;2023-02-16T03:11:16;101669.41;;;8.89;44.72
60417;BME280;46263;44.726;10.396;2023-02-16T03:14:06;101659.97;;;8.72;44.56
60417;BME280;46263;44.726;10.396;2023-02-16T03:16:37;101659.09;;;8.67;45.29
60417;BME280;46263;44.726;10.396;2023-02-16T03:19:06;101663.31;;;8.62;46.25
60417;BME280;46263;44.726;10.396;2023-02-16T03:21:52;101664.47;;;8.56;46.97
60417;BME280;46263;44.726;10.396;2023-02-16T03:24:36;101663.88;;;8.52;47.76
60417;BME280;46263;44.726;10.396;2023-02-16T03:27:24;101667.03;;;8.45;47.46
60417;BME280;46263;44.726;10.396;2023-02-16T03:30:10;101669.53;;;8.43;47.32
60417;BME280;46263;44.726;10.396;2023-02-16T03:32:37;101673.19;;;8.49;47.25
60417;BME280;46263;44.726;10.396;2023-02-16T03:35:03;101675.03;;;8.52;46.66
60417;BME280;46263;44.726;10.396;2023-02-16T03:37:30;101674.34;;;8.42;47.52
60417;BME280;46263;44.726;10.396;2023-02-16T03:39:56;101671.81;;;8.44;46.74
60417;BME280;46263;44.726;10.396;2023-02-16T03:42:47;101673.66;;;8.47;46.66
60417;BME280;46263;44.726;10.396;2023-02-16T03:45:13;101673.66;;;8.47;46.13
60417;BME280;46263;44.726;10.396;2023-02-16T03:47:39;101676.94;;;8.46;45.91
60417;BME280;46263;44.726;10.396;2023-02-16T03:50:05;101678.75;;;8.49;46.49
60417;BME280;46263;44.726;10.396;2023-02-16T03:52:31;101676.75;;;8.49;46.05
60417;BME280;46263;44.726;10.396;2023-02-16T03:54:56;101683.38;;;8.52;46.27
60417;BME280;46263;44.726;10.396;2023-02-16T03:57:22;101676.34;;;8.42;45.85
60417;BME280;46263;44.726;10.396;2023-02-16T03:59:47;101682.91;;;8.53;46.49
60417;BME280;46263;44.726;10.396;2023-02-16T04:02:13;101682.44;;;8.55;46.48
60417;BME280;46263;44.726;10.396;2023-02-16T04:04:38;101678.69;;;8.58;46.55
60417;BME280;46263;44.726;10.396;2023-02-16T04:07:04;101678.69;;;8.58;46.59
60417;BME280;46263;44.726;10.396;2023-02-16T04:09:29;101689.25;;;8.54;46.51
60417;BME280;46263;44.726;10.396;2023-02-16T04:11:55;101682.72;;;8.57;46.28
60417;BME280;46263;44.726;10.396;2023-02-16T04:14:39;101678.50;;;8.61;46.11
60417;BME280;46263;44.726;10.396;2023-02-16T04:17:04;101682.56;;;8.60;46.04
60417;BME280;46263;44.726;10.396;2023-02-16T04:19:30;101685.22;;;8.55;45.27
60417;BME280;46263;44.726;10.396;2023-02-16T04:21:55;101681.78;;;8.60;45.53
60417;BME280;46263;44.726;10.396;2023-02-16T04:24:21;101684.84;;;8.62;45.10
60417;BME280;46263;44.726;10.396;2023-02-16T04:26:47;101691.00;;;8.66;45.42
60417;BME280;46263;44.726;10.396;2023-02-16T04:29:14;101692.53;;;8.67;45.69
60417;BME280;46263;44.726;10.396;2023-02-16T04:31:40;101687.94;;;8.64;45.31
60417;BME280;46263;44.726;10.396;2023-02-16T04:34:05;101687.94;;;8.64;45.49
60417;BME280;46263;44.726;10.396;2023-02-16T04:36:31;101691.97;;;8.63;45.06
60417;BME280;46263;44.726;10.396;2023-02-16T04:38:56;101684.81;;;8.47;45.33
60417;BME280;46263;44.726;10.396;2023-02-16T04:41:22;101689.13;;;8.48;45.13
60417;BME280;46263;44.726;10.396;2023-02-16T04:43:47;101691.16;;;8.48;45.02
60417;BME280;46263;44.726;10.396;2023-02-16T04:46:13;101695.78;;;8.51;45.51
60417;BME280;46263;44.726;10.396;2023-02-16T04:48:38;101695.59;;;8.54;45.55
60417;BME280;46263;44.726;10.396;2023-02-16T04:51:04;101698.06;;;8.52;45.93
60417;BME280;46263;44.726;10.396;2023-02-16T04:53:30;101695.00;;;8.50;45.84
60417;BME280;46263;44.726;10.396;2023-02-16T04:55:55;101685.97;;;8.55;45.30
60417;BME280;46263;44.726;10.396;2023-02-16T04:58:21;101693.09;;;8.56;45.55
60417;BME280;46263;44.726;10.396;2023-02-16T05:00:46;101699.22;;;8.46;45.41
60417;BME280;46263;44.726;10.396;2023-02-16T05:03:12;101694.22;;;8.50;45.62
60417;BME280;46263;44.726;10.396;2023-02-16T05:05:38;101693.41;;;8.35;45.73
60417;BME280;46263;44.726;10.396;2023-02-16T05:08:04;101697.69;;;8.45;45.25
60417;BME280;46263;44.726;10.396;2023-02-16T05:10:29;101694.28;;;8.41;45.60
60417;BME280;46263;44.726;10.396;2023-02-16T05:12:55;101691.81;;;8.43;44.92
60417;BME280;46263;44.726;10.396;2023-02-16T05:15:39;101700.16;;;8.43;44.93
60417;BME280;46263;44.726;10.396;2023-02-16T05:18:04;101689.63;;;8.47;44.78
60417;BME280;46263;44.726;10.396;2023-02-16T05:20:30;101697.13;;;8.55;44.85
60417;BME280;46263;44.726;10.396;2023-02-16T05:23:15;101703.56;;;8.47;44.85
60417;BME280;46263;44.726;10.396;2023-02-16T05:25:40;101706.72;;;8.40;44.87
60417;BME280;46263;44.726;10.396;2023-02-16T05:28:06;101703.44;;;8.41;44.79
60417;BME280;46263;44.726;10.396;2023-02-16T05:30:31;101704.63;;;8.49;44.21
60417;BME280;46263;44.726;10.396;2023-02-16T05:32:57;101708.81;;;8.45;44.44
60417;BME280;46263;44.726;10.396;2023-02-16T05:35:22;101705.72;;;8.43;45.01
60417;BME280;46263;44.726;10.396;2023-02-16T05:37:48;101714.56;;;8.41;45.54
60417;BME280;46263;44.726;10.396;2023-02-16T05:40:14;101706.75;;;8.31;45.13
60417;BME280;46263;44.726;10.396;2023-02-16T05:42:39;101708.53;;;8.19;46.38
60417;BME280;46263;44.726;10.396;2023-02-16T05:45:05;101713.16;;;8.22;46.44
60417;BME280;46263;44.726;10.396;2023-02-16T05:47:30;101710.84;;;8.21;46.26
60417;BME280;46263;44.726;10.396;2023-02-16T05:49:56;101713.44;;;8.24;45.77
60417;BME280;46263;44.726;10.396;2023-02-16T05:52:22;101710.66;;;8.24;45.65
60417;BME280;46263;44.726;10.396;2023-02-16T05:54:47;101702.19;;;8.19;46.21
60417;BME280;46263;44.726;10.396;2023-02-16T05:57:13;101711.78;;;8.18;45.84
60417;BME280;46263;44.726;10.396;2023-02-16T05:59:39;101719.84;;;8.16;45.23
60417;BME280;46263;44.726;10.396;2023-02-16T06:02:04;101709.03;;;8.09;45.64
60417;BME280;46263;44.726;10.396;2023-02-16T06:04:30;101715.06;;;8.07;45.45
60417;BME280;46263;44.726;10.396;2023-02-16T06:06:57;101713.97;;;8.14;45.16
60417;BME280;46263;44.726;10.396;2023-02-16T06:09:22;101714.25;;;8.16;45.63
60417;BME280;46263;44.726;10.396;2023-02-16T06:11:48;101724.47;;;8.10;45.76
60417;BME280;46263;44.726;10.396;2023-02-16T06:14:18;101724.03;;;8.11;45.54
60417;BME280;46263;44.726;10.396;2023-02-16T06:16:46;101728.84;;;8.02;45.79
60417;BME280;46263;44.726;10.396;2023-02-16T06:19:13;101727.75;;;8.08;45.77
60417;BME280;46263;44.726;10.396;2023-02-16T06:21:39;101735.03;;;8.06;45.50
60417;BME280;46263;44.726;10.396;2023-02-16T06:24:07;101743.09;;;8.04;45.53
60417;BME280;46263;44.726;10.396;2023-02-16T06:26:33;101740.66;;;7.97;45.44
60417;BME280;46263;44.726;10.396;2023-02-16T06:28:59;101738.97;;;7.90;45.79
60417;BME280;46263;44.726;10.396;2023-02-16T06:31:25;101740.06;;;7.84;45.92
60417;BME280;46263;44.726;10.396;2023-02-16T06:33:51;101738.84;;;7.85;46.46
60417;BME280;46263;44.726;10.396;2023-02-16T06:36:17;101748.13;;;7.82;46.74
60417;BME280;46263;44.726;10.396;2023-02-16T06:38:44;101747.50;;;7.87;46.49
60417;BME280;46263;44.726;10.396;2023-02-16T06:41:10;101753.22;;;7.84;46.89
60417;BME280;46263;44.726;10.396;2023-02-16T06:43:36;101750.28;;;7.87;47.20
60417;BME280;46263;44.726;10.396;2023-02-16T06:46:01;101753.31;;;7.98;47.11
60417;BME280;46263;44.726;10.396;2023-02-16T06:48:27;101757.31;;;8.06;46.95
60417;BME280;46263;44.726;10.396;2023-02-16T06:50:52;101755.81;;;7.96;47.33
60417;BME280;46263;44.726;10.396;2023-02-16T06:53:18;101758.03;;;7.83;47.40
60417;BME280;46263;44.726;10.396;2023-02-16T06:55:45;101762.34;;;7.84;47.64
60417;BME280;46263;44.726;10.396;2023-02-16T06:58:11;101766.00;;;7.99;47.27
60417;BME280;46263;44.726;10.396;2023-02-16T07:00:36;101763.00;;;8.11;47.38
60417;BME280;46263;44.726;10.396;2023-02-16T07:03:02;101759.72;;;8.22;47.66
60417;BME280;46263;44.726;10.396;2023-02-16T07:05:28;101767.41;;;8.27;47.76
60417;BME280;46263;44.726;10.396;2023-02-16T07:07:53;101757.00;;;8.36;47.55
60417;BME280;46263;44.726;10.396;2023-02-16T07:10:19;101763.34;;;8.37;47.99
60417;BME280;46263;44.726;10.396;2023-02-16T07:12:46;101765.47;;;8.42;47.97
60417;BME280;46263;44.726;10.396;2023-02-16T07:15:12;101761.56;;;8.48;48.54
60417;BME280;46263;44.726;10.396;2023-02-16T07:17:37;101760.91;;;8.53;48.12
60417;BME280;46263;44.726;10.396;2023-02-16T07:20:04;101761.69;;;8.54;48.39
60417;BME280;46263;44.726;10.396;2023-02-16T07:22:30;101767.25;;;8.54;48.15
60417;BME280;46263;44.726;10.396;2023-02-16T07:24:56;101774.31;;;8.64;47.94
60417;BME280;46263;44.726;10.396;2023-02-16T07:27:23;101775.25;;;8.61;48.18
60417;BME280;46263;44.726;10.396;2023-02-16T07:29:49;101774.66;;;8.57;48.58
60417;BME280;46263;44.726;10.396;2023-02-16T07:32:15;101778.16;;;8.66;48.70
60417;BME280;46263;44.726;10.396;2023-02-16T07:34:41;101773.94;;;8.71;48.90
60417;BME280;46263;44.726;10.396;2023-02-16T07:37:06;101774.81;;;8.76;49.19
60417;BME280;46263;44.726;10.396;2023-02-16T07:39:32;101775.00;;;8.73;49.45
60417;BME280;46263;44.726;10.396;2023-02-16T07:41:58;101789.47;;;8.86;48.88
60417;BME280;46263;44.726;10.396;2023-02-16T07:44:24;101787.59;;;9.06;48.99
60417;BME280;46263;44.726;10.396;2023-02-16T07:46:49;101777.22;;;9.21;49.19
60417;BME280;46263;44.726;10.396;2023-02-16T07:49:15;101784.38;;;9.37;48.98
60417;BME280;46263;44.726;10.396;2023-02-16T07:51:41;101777.44;;;9.47;49.29
60417;BME280;46263;44.726;10.396;2023-02-16T07:54:06;101786.09;;;9.63;49.57
60417;BME280;46263;44.726;10.396;2023-02-16T07:56:33;101788.78;;;9.72;50.17
60417;BME280;46263;44.726;10.396;2023-02-16T07:59:00;101791.28;;;9.84;49.66
60417;BME280;46263;44.726;10.396;2023-02-16T08:01:26;101801.84;;;9.95;50.21
60417;BME280;46263;44.726;10.396;2023-02-16T08:03:52;101791.66;;;10.06;50.08
60417;BME280;46263;44.726;10.396;2023-02-16T08:06:19;101798.97;;;10.18;50.34
60417;BME280;46263;44.726;10.396;2023-02-16T08:08:45;101807.22;;;10.27;51.10
60417;BME280;46263;44.726;10.396;2023-02-16T08:11:16;101815.72;;;10.32;51.40
60417;BME280;46263;44.726;10.396;2023-02-16T08:13:43;101808.44;;;10.40;52.00
60417;BME280;46263;44.726;10.396;2023-02-16T08:16:11;101820.09;;;10.39;52.56
60417;BME280;46263;44.726;10.396;2023-02-16T08:18:37;101820.97;;;10.45;52.94
60417;BME280;46263;44.726;10.396;2023-02-16T08:21:14;101816.78;;;10.55;52.94
60417;BME280;46263;44.726;10.396;2023-02-16T08:24:00;101822.59;;;10.71;52.96
60417;BME280;46263;44.726;10.396;2023-02-16T08:26:32;101825.94;;;10.75;53.19
60417;BME280;46263;44.726;10.396;2023-02-16T08:28:59;101825.13;;;10.89;52.92
60417;BME280;46263;44.726;10.396;2023-02-16T08:31:28;101827.78;;;10.98;53.19
60417;BME280;46263;44.726;10.396;2023-02-16T08:33:55;101829.88;;;11.03;53.29
60417;BME280;46263;44.726;10.396;2023-02-16T08:36:30;101829.16;;;11.08;53.28
60417;BME280;46263;44.726;10.396;2023-02-16T08:39:03;101827.47;;;11.16;53.49
60417;BME280;46263;44.726;10.396;2023-02-16T08:41:31;101828.53;;;11.18;53.50
60417;BME280;46263;44.726;10.396;2023-02-16T08:43:58;101829.69;;;11.32;53.47
60417;BME280;46263;44.726;10.396;2023-02-16T08:46:26;101833.34;;;11.38;53.76
60417;BME280;46263;44.726;10.396;2023-02-16T08:48:57;101835.78;;;11.50;54.41
60417;BME280;46263;44.726;10.396;2023-02-16T08:51:26;101840.16;;;11.57;53.94
60417;BME280;46263;44.726;10.396;2023-02-16T08:53:52;101839.13;;;11.54;53.38
60417;BME280;46263;44.726;10.396;2023-02-16T08:56:18;101847.03;;;11.56;53.17
60417;BME280;46263;44.726;10.396;2023-02-16T08:58:45;101854.00;;;11.66;53.79
60417;BME280;46263;44.726;10.396;2023-02-16T09:01:12;101855.91;;;11.74;53.65
60417;BME280;46263;44.726;10.396;2023-02-16T09:03:39;101852.59;;;11.76;53.66
60417;BME280;46263;44.726;10.396;2023-02-16T09:06:10;101854.19;;;11.82;54.15
60417;BME280;46263;44.726;10.396;2023-02-16T09:08:37;101854.88;;;11.77;53.83
60417;BME280;46263;44.726;10.396;2023-02-16T09:11:08;101864.31;;;11.80;54.18
60417;BME280;46263;44.726;10.396;2023-02-16T09:13:36;101864.06;;;11.78;54.36
60417;BME280;46263;44.726;10.396;2023-02-16T09:16:09;101866.66;;;11.81;54.29
60417;BME280;46263;44.726;10.396;2023-02-16T09:18:35;101869.06;;;11.93;54.59
60417;BME280;46263;44.726;10.396;2023-02-16T09:21:13;101868.84;;;11.97;54.53
60417;BME280;46263;44.726;10.396;2023-02-16T09:23:41;101874.91;;;11.95;54.69
60417;BME280;46263;44.726;10.396;2023-02-16T09:26:09;101882.91;;;12.02;54.14
60417;BME280;46263;44.726;10.396;2023-02-16T09:28:36;101880.34;;;12.04;54.39
60417;BME280;46263;44.726;10.396;2023-02-16T09:31:09;101881.44;;;12.12;53.92
60417;BME280;46263;44.726;10.396;2023-02-16T09:33:36;101881.44;;;12.12;53.40
60417;BME280;46263;44.726;10.396;2023-02-16T09:36:09;101886.63;;;12.19;53.26
60417;BME280;46263;44.726;10.396;2023-02-16T09:38:36;101880.00;;;12.22;52.99
60417;BME280;46263;44.726;10.396;2023-02-16T09:41:20;101880.09;;;12.33;52.73
60417;BME280;46263;44.726;10.396;2023-02-16T09:43:52;101877.81;;;12.37;52.95
60417;BME280;46263;44.726;10.396;2023-02-16T09:46:21;101878.66;;;12.43;53.11
60417;BME280;46263;44.726;10.396;2023-02-16T09:48:49;101872.97;;;12.32;53.46
60417;BME280;46263;44.726;10.396;2023-02-16T09:53:52;101874.03;;;12.40;53.64
60417;BME280;46263;44.726;10.396;2023-02-16T09:56:28;101883.81;;;12.50;53.50
60417;BME280;46263;44.726;10.396;2023-02-16T10:01:43;101866.03;;;12.64;53.28
60417;BME280;46263;44.726;10.396;2023-02-16T10:10:05;101866.72;;;12.90;53.07
60417;BME280;46263;44.726;10.396;2023-02-16T10:12:39;101862.19;;;12.98;52.06
60417;BME280;46263;44.726;10.396;2023-02-16T10:15:15;101870.16;;;13.10;51.63
60417;BME280;46263;44.726;10.396;2023-02-16T10:17:47;101877.56;;;13.19;52.09
60417;BME280;46263;44.726;10.396;2023-02-16T10:20:22;101873.78;;;13.22;51.57
60417;BME280;46263;44.726;10.396;2023-02-16T10:23:01;101872.00;;;13.30;52.03
60417;BME280;46263;44.726;10.396;2023-02-16T10:26:13;101865.91;;;13.37;51.23
60417;BME280;46263;44.726;10.396;2023-02-16T10:28:45;101870.53;;;13.40;51.52
60417;BME280;46263;44.726;10.396;2023-02-16T10:39:58;101868.25;;;13.49;51.29
60417;BME280;46263;44.726;10.396;2023-02-16T10:47:42;101867.53;;;13.81;51.45
60417;BME280;46263;44.726;10.396;2023-02-16T10:53:21;101855.31;;;13.95;51.11
60417;BME280;46263;44.726;10.396;2023-02-16T10:55:55;101855.28;;;14.06;51.46
60417;BME280;46263;44.726;10.396;2023-02-16T10:58:28;101848.97;;;14.11;50.53
60417;BME280;46263;44.726;10.396;2023-02-16T11:01:13;101856.63;;;14.16;51.01
60417;BME280;46263;44.726;10.396;2023-02-16T11:03:50;101851.22;;;14.07;51.41
60417;BME280;46263;44.726;10.396;2023-02-16T11:06:19;101846.09;;;14.00;52.44
60417;BME280;46263;44.726;10.396;2023-02-16T11:08:59;101845.34;;;14.11;51.96
60417;BME280;46263;44.726;10.396;2023-02-16T11:11:26;101836.66;;;14.14;52.21
60417;BME280;46263;44.726;10.396;2023-02-16T11:14:01;101828.75;;;14.29;51.75
60417;BME280;46263;44.726;10.396;2023-02-16T11:16:27;101840.50;;;14.44;52.04
60417;BME280;46263;44.726;10.396;2023-02-16T11:18:57;101841.25;;;14.39;50.79
60417;BME280;46263;44.726;10.396;2023-02-16T11:21:47;101835.41;;;14.37;50.10
60417;BME280;46263;44.726;10.396;2023-02-16T11:27:05;101824.63;;;14.41;50.70
60417;BME280;46263;44.726;10.396;2023-02-16T11:29:32;101819.00;;;14.52;50.44
60417;BME280;46263;44.726;10.396;2023-02-16T11:31:58;101815.91;;;14.61;49.95
60417;BME280;46263;44.726;10.396;2023-02-16T11:34:33;101815.63;;;14.70;49.78
60417;BME280;46263;44.726;10.396;2023-02-16T11:37:26;101805.59;;;14.80;50.00
60417;BME280;46263;44.726;10.396;2023-02-16T11:39:56;101802.75;;;14.91;48.95
60417;BME280;46263;44.726;10.396;2023-02-16T11:45:28;101797.81;;;15.08;49.85
60417;BME280;46263;44.726;10.396;2023-02-16T11:47:56;101800.84;;;15.15;49.66
60417;BME280;46263;44.726;10.396;2023-02-16T11:50:26;101795.19;;;15.15;48.92
60417;BME280;46263;44.726;10.396;2023-02-16T11:55:35;101790.00;;;15.35;48.69
60417;BME280;46263;44.726;10.396;2023-02-16T11:58:21;101793.06;;;15.37;49.17
60417;BME280;46263;44.726;10.396;2023-02-16T12:06:30;101776.00;;;15.13;48.92
60417;BME280;46263;44.726;10.396;2023-02-16T12:12:27;101766.34;;;15.49;50.00
60417;BME280;46263;44.726;10.396;2023-02-16T12:22:42;101758.47;;;15.72;48.70
60417;BME280;46263;44.726;10.396;2023-02-16T12:25:41;101756.63;;;15.80;48.16
60417;BME280;46263;44.726;10.396;2023-02-16T12:44:20;101727.66;;;16.08;47.73
60417;BME280;46263;44.726;10.396;2023-02-16T12:46:57;101726.59;;;16.11;47.26
60417;BME280;46263;44.726;10.396;2023-02-16T12:49:27;101726.53;;;16.17;47.95
60417;BME280;46263;44.726;10.396;2023-02-16T12:54:51;101725.72;;;16.22;46.78
60417;BME280;46263;44.726;10.396;2023-02-16T12:57:22;101716.06;;;16.12;46.97
60417;BME280;46263;44.726;10.396;2023-02-16T12:59:59;101715.19;;;16.22;47.58
60417;BME280;46263;44.726;10.396;2023-02-16T13:02:43;101708.22;;;16.29;47.85
60417;BME280;46263;44.726;10.396;2023-02-16T13:05:13;101715.41;;;16.30;46.68
60417;BME280;46263;44.726;10.396;2023-02-16T13:07:45;101703.53;;;16.37;46.71
60417;BME280;46263;44.726;10.396;2023-02-16T13:10:35;101698.41;;;16.35;45.87
60417;BME280;46263;44.726;10.396;2023-02-16T13:13:09;101695.28;;;16.39;46.49
60417;BME280;46263;44.726;10.396;2023-02-16T13:15:42;101695.75;;;16.43;46.85
60417;BME280;46263;44.726;10.396;2023-02-16T13:18:17;101696.53;;;16.43;46.40
60417;BME280;46263;44.726;10.396;2023-02-16T13:20:48;101697.28;;;16.44;46.05
60417;BME280;46263;44.726;10.396;2023-02-16T13:28:54;101682.78;;;16.34;45.15
60417;BME280;46263;44.726;10.396;2023-02-16T13:31:34;101684.38;;;16.30;46.20
60417;BME280;46263;44.726;10.396;2023-02-16T13:39:50;101688.72;;;16.31;46.47
60417;BME280;46263;44.726;10.396;2023-02-16T13:42:32;101682.03;;;16.28;46.73
60417;BME280;46263;44.726;10.396;2023-02-16T13:45:11;101681.03;;;16.26;46.52
60417;BME280;46263;44.726;10.396;2023-02-16T13:47:39;101685.16;;;16.25;47.19
60417;BME280;46263;44.726;10.396;2023-02-16T13:52:54;101675.63;;;16.28;46.53
60417;BME280;46263;44.726;10.396;2023-02-16T13:55:37;101671.56;;;16.29;46.24
60417;BME280;46263;44.726;10.396;2023-02-16T14:00:42;101662.88;;;16.21;46.80
60417;BME280;46263;44.726;10.396;2023-02-16T14:14:32;101654.84;;;16.07;48.92
60417;BME280;46263;44.726;10.396;2023-02-16T14:17:14;101658.72;;;16.04;48.18
60417;BME280;46263;44.726;10.396;2023-02-16T14:27:57;101644.22;;;15.95;47.40
60417;BME280;46263;44.726;10.396;2023-02-16T14:33:00;101649.09;;;15.94;47.67
60417;BME280;46263;44.726;10.396;2023-02-16T14:35:32;101646.03;;;15.92;48.04
60417;BME280;46263;44.726;10.396;2023-02-16T14:38:01;101648.09;;;15.92;47.31
60417;BME280;46263;44.726;10.396;2023-02-16T14:40:40;101655.81;;;15.91;47.31
60417;BME280;46263;44.726;10.396;2023-02-16T14:43:26;101651.97;;;15.89;47.22
60417;BME280;46263;44.726;10.396;2023-02-16T14:46:11;101646.63;;;15.85;46.96
60417;BME280;46263;44.726;10.396;2023-02-16T14:57:32;101647.78;;;15.71;48.63
60417;BME280;46263;44.726;10.396;2023-02-16T15:00:11;101647.53;;;15.69;48.20
60417;BME280;46263;44.726;10.396;2023-02-16T15:02:41;101649.38;;;15.67;48.45
60417;BME280;46263;44.726;10.396;2023-02-16T15:05:36;101652.94;;;15.67;49.43
60417;BME280;46263;44.726;10.396;2023-02-16T15:08:12;101661.41;;;15.67;48.72
60417;BME280;46263;44.726;10.396;2023-02-16T15:10:41;101654.25;;;15.66;48.33
60417;BME280;46263;44.726;10.396;2023-02-16T15:13:22;101655.53;;;15.65;48.56
60417;BME280;46263;44.726;10.396;2023-02-16T15:15:51;101650.66;;;15.66;48.74
60417;BME280;46263;44.726;10.396;2023-02-16T15:18:30;101653.47;;;15.66;48.96
60417;BME280;46263;44.726;10.396;2023-02-16T15:20:57;101648.38;;;15.64;49.61
60417;BME280;46263;44.726;10.396;2023-02-16T15:23:30;101646.09;;;15.63;49.90
60417;BME280;46263;44.726;10.396;2023-02-16T15:25:57;101657.41;;;15.57;49.48